Updated16/10/2018 20:30 
 

Dummy
GeoURL
free counters
Scottish Weather Network UK Weather Network Cumulus Top Weather Sites

Peebles Weather - Live Gauges

Raw Data, Raw Data Expanded

Ignore low humidity and Dew Point values. Something wrong with the sensor.
Daytime temperatures are in direct sunlight so may be higher than official air temperature values.
As with any other website, we log your IP address and browser type in the server logs for diagnostic reasons. Cookies are used to record visit time and gauges preferences. No personal information is stored or processed.

All times are in BST (UTC+1) unless specified.

2018/10/16 19:20 EGPH 161920Z 21007KT 9999 FEW020 11/10 Q1009
12.5°C 0.0 mm 0.3 mm 0.3 mm 2.7 mph 6.9 mph 1005.3 hPa 79% X-Ray Solar Flare Level
Planetary K-Index
Planetary K-Index History
Station Warn Rain Snow Flood Wind Ltng Heat Cold Glob Moon Temp Rain 1h Rain Tue Rain 24h Wind 10m Gust Pressure Hum Proton Levels

0.517 m First Quarter Cool F1-NNE F: A: Kp:0 SSN:0

Gauges

. Peebles Weather Steel Gauges
Time at station location

      



Temperature:
Rainfall:
Pressure:
Wind Speed:
CloudBase:
 
 
 
 

Scripts: Mark Crossley - version
Gauges: Gerrit Grunwald's SteelSeries JavaScript library
Wind Rose: RGraph
A cookie is used to store your UoM and gauge preferences
powered by v (b)


XHTML 1.1 | CSS